Time;durP1;ratioP1;P1;durP2;ratioP2;P2;SDS_P1;SDS_P2;PMS_P1;PMS_P2;Temp;Humidity;BMP_temperature;BMP_pressure;BME280_temperature;BME280_humidity;BME280_pressure;Samples;Min_cycle;Max_cycle;Signal;HPM_P1;HPM_P2
2024/03/04 00:00:16;;;;;;;12.63;11.70;;;12.50;18.00;;;;;;5017920;28;20178;-78
2024/03/04 00:02:43;;;;;;;12.63;11.53;;;12.40;18.40;;;;;;5016795;28;20468;-79
2024/03/04 00:05:09;;;;;;;10.63;9.93;;;12.50;18.30;;;;;;5006245;28;20425;-80
2024/03/04 00:07:35;;;;;;;11.53;10.73;;;12.50;18.10;;;;;;5000659;28;20436;-79
2024/03/04 00:10:04;;;;;;;12.70;11.70;;;12.50;17.90;;;;;;5007187;28;20425;-79
2024/03/04 00:12:30;;;;;;;13.33;12.33;;;12.50;18.20;;;;;;5008328;28;20460;-79
2024/03/04 00:14:55;;;;;;;12.03;11.23;;;12.50;18.30;;;;;;5006629;28;20764;-79
2024/03/04 00:17:23;;;;;;;12.37;11.47;;;12.60;18.30;;;;;;5008841;28;20599;-79
2024/03/04 00:19:49;;;;;;;13.50;12.40;;;12.50;19.00;;;;;;5011447;28;20217;-80
2024/03/04 00:22:15;;;;;;;12.50;11.70;;;12.40;19.40;;;;;;5005813;28;20491;-79
2024/03/04 00:24:40;;;;;;;13.13;12.13;;;12.30;19.80;;;;;;5012502;28;20484;-79
2024/03/04 00:27:06;;;;;;;12.30;11.47;;;12.30;19.40;;;;;;5007556;28;20247;-78
2024/03/04 00:29:32;;;;;;;13.90;12.90;;;12.40;19.10;;;;;;5006866;28;20580;-79
2024/03/04 00:31:58;;;;;;;12.20;11.40;;;12.30;20.00;;;;;;5014753;28;20530;-79
2024/03/04 00:34:23;;;;;;;13.10;12.10;;;12.30;20.00;;;;;;5003473;28;20265;-79
2024/03/04 00:36:49;;;;;;;13.23;12.37;;;12.40;19.60;;;;;;5003904;28;20182;-79
2024/03/04 00:39:14;;;;;;;14.37;13.17;;;12.30;19.90;;;;;;5007850;28;20177;-78
2024/03/04 00:41:40;;;;;;;13.63;12.63;;;12.20;20.60;;;;;;5011888;28;20202;-78
2024/03/04 00:44:05;;;;;;;16.83;14.23;;;12.10;20.80;;;;;;4996310;28;20178;-79
2024/03/04 00:46:31;;;;;;;14.30;13.30;;;11.90;21.50;;;;;;5014409;28;20199;-77
2024/03/04 00:48:56;;;;;;;13.97;13.00;;;11.80;21.60;;;;;;5007800;28;20174;-77
2024/03/04 00:51:22;;;;;;;14.40;13.40;;;11.80;21.80;;;;;;5007489;28;20652;-78
2024/03/04 00:53:48;;;;;;;14.13;13.23;;;11.90;21.50;;;;;;5009735;28;20694;-78
2024/03/04 00:56:14;;;;;;;14.70;13.70;;;12.00;21.30;;;;;;5013244;28;20217;-78
2024/03/04 00:58:40;;;;;;;14.60;13.70;;;12.10;21.10;;;;;;5000158;28;20221;-79
2024/03/04 01:01:06;;;;;;;14.70;13.70;;;12.10;21.00;;;;;;5016682;28;20555;-79
2024/03/04 01:03:32;;;;;;;15.40;14.40;;;12.20;21.00;;;;;;5008902;28;20452;-78
2024/03/04 01:06:01;;;;;;;14.27;13.27;;;12.10;20.90;;;;;;5015750;28;20436;-79
2024/03/04 01:08:27;;;;;;;14.90;13.80;;;12.00;21.60;;;;;;5012577;28;20185;-79
2024/03/04 01:10:56;;;;;;;16.30;14.90;;;12.00;21.70;;;;;;5005059;28;20457;-79
2024/03/04 01:13:22;;;;;;;14.80;13.50;;;12.00;21.40;;;;;;5008046;28;20469;-80
2024/03/04 01:15:48;;;;;;;15.13;14.03;;;11.90;21.90;;;;;;5011532;28;20527;-79
2024/03/04 01:18:15;;;;;;;16.03;14.83;;;11.60;22.50;;;;;;5013171;28;20920;-79
2024/03/04 01:20:41;;;;;;;15.47;14.37;;;11.50;22.90;;;;;;5016752;28;20191;-80
2024/03/04 01:23:08;;;;;;;15.70;14.50;;;11.50;23.40;;;;;;5016271;28;20510;-79
2024/03/04 01:25:34;;;;;;;16.33;15.13;;;11.60;23.20;;;;;;5010630;28;20463;-79
2024/03/04 01:28:00;;;;;;;16.73;15.47;;;11.70;22.70;;;;;;5006455;28;20504;-79
2024/03/04 01:30:26;;;;;;;16.10;14.90;;;11.80;22.30;;;;;;5013428;28;20432;-80
2024/03/04 01:32:59;;;;;;;15.73;14.63;;;12.00;22.20;;;;;;5000843;28;20205;-78
2024/03/04 01:35:26;;;;;;;15.60;14.50;;;12.00;22.00;;;;;;5011640;28;20465;-78
2024/03/04 01:37:52;;;;;;;15.73;14.70;;;12.10;21.70;;;;;;4997392;28;20432;-78
2024/03/04 01:40:18;;;;;;;13.90;12.90;;;12.20;21.70;;;;;;5007227;28;20425;-77
2024/03/04 01:42:46;;;;;;;15.53;14.53;;;12.20;21.50;;;;;;5005606;28;20973;-78
2024/03/04 01:45:33;;;;;;;16.13;14.93;;;12.20;21.30;;;;;;5001342;28;20185;-78
2024/03/04 01:48:01;;;;;;;14.67;13.67;;;12.20;21.50;;;;;;5003651;28;20990;-79
2024/03/04 01:50:30;;;;;;;15.17;14.07;;;12.20;21.80;;;;;;4999927;28;20787;-78
2024/03/04 01:52:58;;;;;;;15.10;14.10;;;12.10;21.70;;;;;;5008849;28;20443;-78
2024/03/04 01:55:26;;;;;;;15.87;14.77;;;12.20;21.70;;;;;;5006431;28;20870;-78
2024/03/04 01:57:52;;;;;;;15.53;14.43;;;12.20;21.80;;;;;;5001711;28;20795;-78
2024/03/04 02:00:19;;;;;;;17.00;15.80;;;12.20;21.80;;;;;;5002712;28;20417;-78
2024/03/04 02:02:45;;;;;;;16.73;15.53;;;12.20;21.70;;;;;;5003191;28;20494;-78
2024/03/04 02:05:12;;;;;;;17.10;15.90;;;12.30;21.80;;;;;;4997555;28;20424;-79
2024/03/04 02:07:39;;;;;;;16.23;14.83;;;12.30;21.80;;;;;;5011259;28;20461;-79
2024/03/04 02:10:11;;;;;;;17.17;15.97;;;12.30;21.80;;;;;;5008887;28;20511;-78
2024/03/04 02:12:37;;;;;;;16.20;14.90;;;12.30;21.80;;;;;;5013594;28;20551;-78
2024/03/04 02:15:04;;;;;;;16.23;15.03;;;12.30;21.90;;;;;;5006922;28;20480;-78
2024/03/04 02:17:32;;;;;;;16.20;14.83;;;12.30;21.80;;;;;;5014882;28;20189;-78
2024/03/04 02:20:19;;;;;;;15.60;14.50;;;12.20;21.70;;;;;;5016655;28;20797;-78
2024/03/04 02:22:45;;;;;;;15.17;14.07;;;12.20;21.70;;;;;;5009225;28;20475;-79
2024/03/04 02:25:11;;;;;;;16.67;15.27;;;12.30;21.50;;;;;;5013725;28;20510;-78
2024/03/04 02:27:38;;;;;;;17.30;16.10;;;12.20;21.50;;;;;;5017409;28;20431;-78
2024/03/04 02:30:04;;;;;;;16.97;15.87;;;12.00;21.60;;;;;;5008414;28;20431;-78
2024/03/04 02:32:31;;;;;;;16.67;15.50;;;12.00;21.80;;;;;;5007358;28;20535;-79
2024/03/04 02:34:57;;;;;;;17.40;16.10;;;11.90;22.00;;;;;;5016253;28;20434;-79
2024/03/04 02:37:23;;;;;;;17.23;15.93;;;12.00;22.10;;;;;;5010872;28;20424;-78
2024/03/04 02:39:50;;;;;;;17.17;15.87;;;12.00;22.00;;;;;;5010981;28;20444;-78
2024/03/04 02:42:17;;;;;;;16.07;15.00;;;12.00;21.90;;;;;;5013274;28;20284;-77
2024/03/04 02:44:42;;;;;;;17.07;15.87;;;12.00;21.70;;;;;;5014063;28;20452;-79
2024/03/04 02:47:08;;;;;;;15.73;14.60;;;12.10;21.90;;;;;;5001573;28;20914;-78
2024/03/04 02:49:35;;;;;;;17.37;16.17;;;12.00;21.80;;;;;;5012330;28;20209;-79
2024/03/04 02:52:01;;;;;;;15.53;14.43;;;11.90;22.10;;;;;;5004374;28;20193;-79
2024/03/04 02:54:26;;;;;;;16.70;15.60;;;11.80;22.30;;;;;;5013142;28;20522;-78
2024/03/04 02:56:52;;;;;;;16.73;15.70;;;11.80;22.10;;;;;;5012094;28;20186;-79
2024/03/04 02:59:19;;;;;;;16.93;15.73;;;11.90;22.20;;;;;;5010793;28;20649;-78
2024/03/04 03:01:47;;;;;;;15.40;14.23;;;11.90;22.00;;;;;;5006053;28;20202;-78
2024/03/04 03:04:14;;;;;;;16.03;14.83;;;12.00;21.50;;;;;;5015047;28;20432;-78
2024/03/04 03:06:40;;;;;;;16.93;15.73;;;11.70;22.50;;;;;;5016679;28;20501;-79
2024/03/04 03:09:49;;;;;;;17.43;16.13;;;11.70;22.80;;;;;;5018810;28;20527;-78
2024/03/04 03:14:45;;;;;;;17.63;16.40;;;11.50;23.20;;;;;;5014573;28;20465;-79
2024/03/04 03:17:19;;;;;;;17.47;16.17;;;11.60;23.20;;;;;;5016092;28;20432;-80
2024/03/04 03:19:49;;;;;;;17.33;16.13;;;11.60;23.00;;;;;;5014890;28;20428;-79
2024/03/04 03:22:18;;;;;;;16.97;15.87;;;11.70;22.90;;;;;;5014692;28;20464;-80
2024/03/04 03:24:43;;;;;;;15.80;14.80;;;11.70;22.90;;;;;;5016675;28;20421;-79
2024/03/04 03:27:12;;;;;;;16.73;15.63;;;11.70;22.70;;;;;;5017748;28;20841;-80
2024/03/04 03:29:41;;;;;;;18.30;16.90;;;11.50;23.10;;;;;;5017400;28;20185;-80
2024/03/04 03:32:23;;;;;;;18.03;16.73;;;11.20;24.00;;;;;;5014194;28;20453;-79
2024/03/04 03:34:53;;;;;;;17.30;16.10;;;11.10;24.40;;;;;;5013785;28;20432;-79
2024/03/04 03:37:19;;;;;;;20.03;18.67;;;10.90;24.90;;;;;;5008983;28;20452;-79
2024/03/04 03:39:44;;;;;;;20.27;18.90;;;10.80;25.80;;;;;;5008227;28;20428;-79
2024/03/04 03:42:11;;;;;;;20.17;18.97;;;10.60;26.50;;;;;;5008280;28;20614;-80
2024/03/04 03:44:36;;;;;;;20.63;19.33;;;10.50;27.40;;;;;;5014446;28;20181;-80
2024/03/04 03:47:02;;;;;;;20.50;19.10;;;10.40;28.10;;;;;;5012878;28;20479;-79
2024/03/04 03:49:27;;;;;;;21.47;19.90;;;10.40;27.90;;;;;;5015263;28;20185;-79
2024/03/04 03:51:53;;;;;;;20.40;19.03;;;10.30;28.30;;;;;;5013772;28;20190;-79
2024/03/04 03:54:18;;;;;;;20.30;18.77;;;10.30;28.80;;;;;;5019864;28;20670;-80
2024/03/04 03:56:44;;;;;;;20.97;19.60;;;10.40;28.60;;;;;;5012760;28;20201;-80
2024/03/04 03:59:09;;;;;;;21.70;20.30;;;10.40;28.80;;;;;;5009277;28;20266;-80
2024/03/04 04:01:36;;;;;;;22.10;20.70;;;10.60;28.50;;;;;;5006201;28;20712;-81
2024/03/04 04:04:02;;;;;;;23.63;22.03;;;10.70;28.20;;;;;;5008987;28;20232;-80
2024/03/04 04:06:28;;;;;;;20.97;19.63;;;10.60;28.60;;;;;;5004977;28;20433;-80
2024/03/04 04:08:53;;;;;;;23.60;22.00;;;10.60;29.10;;;;;;5007670;28;20213;-81
2024/03/04 04:11:19;;;;;;;22.80;21.30;;;10.80;28.80;;;;;;5011107;28;20444;-80
2024/03/04 04:13:45;;;;;;;25.47;23.77;;;10.80;28.30;;;;;;5004789;28;20245;-80
2024/03/04 04:16:11;;;;;;;24.67;22.93;;;10.70;29.40;;;;;;5006210;28;20196;-80
2024/03/04 04:18:36;;;;;;;23.33;21.77;;;10.60;29.50;;;;;;5006550;28;20468;-80
2024/03/04 04:21:03;;;;;;;25.13;23.43;;;10.60;29.90;;;;;;5004568;28;20209;-80
2024/03/04 04:23:28;;;;;;;25.67;23.97;;;10.50;30.00;;;;;;5017200;28;20205;-80
2024/03/04 04:25:54;;;;;;;23.47;21.80;;;10.60;30.10;;;;;;5002145;28;20515;-80
2024/03/04 04:28:20;;;;;;;25.10;23.40;;;10.90;29.80;;;;;;5017653;28;20185;-80
2024/03/04 04:30:46;;;;;;;25.27;23.47;;;11.00;29.20;;;;;;5001613;28;20432;-81
2024/03/04 04:33:11;;;;;;;24.93;23.13;;;11.20;28.40;;;;;;5017663;28;20221;-80
2024/03/04 04:35:36;;;;;;;24.53;22.80;;;11.40;28.00;;;;;;5021200;28;20197;-80
2024/03/04 04:38:02;;;;;;;25.83;23.93;;;11.50;27.50;;;;;;5010935;28;20174;-80
2024/03/04 04:40:28;;;;;;;25.43;23.63;;;11.50;27.20;;;;;;5006617;28;20189;-80
2024/03/04 04:42:53;;;;;;;27.20;25.10;;;11.50;27.10;;;;;;5009564;28;20268;-80
2024/03/04 04:45:24;;;;;;;26.07;24.37;;;11.50;27.40;;;;;;5007240;28;20197;-81
2024/03/04 04:47:50;;;;;;;28.10;26.10;;;11.40;27.50;;;;;;5013733;28;20248;-81
2024/03/04 04:50:19;;;;;;;25.07;23.13;;;11.20;28.50;;;;;;5006216;28;20425;-80
2024/03/04 04:52:44;;;;;;;26.73;24.83;;;11.30;28.30;;;;;;5007484;28;20271;-80
2024/03/04 04:55:10;;;;;;;28.30;26.23;;;11.30;28.10;;;;;;5009737;28;20441;-80
2024/03/04 04:57:35;;;;;;;30.33;28.13;;;11.20;28.50;;;;;;5015485;28;20653;-80
2024/03/04 05:00:04;;;;;;;27.73;25.43;;;11.40;28.10;;;;;;5010180;28;20211;-80
2024/03/04 05:02:29;;;;;;;28.97;26.80;;;11.40;27.60;;;;;;5015820;28;20224;-80
2024/03/04 05:04:55;;;;;;;26.60;24.60;;;11.40;28.10;;;;;;5016481;28;20864;-80
2024/03/04 05:07:23;;;;;;;28.63;26.37;;;11.30;28.20;;;;;;5016129;28;20531;-81
2024/03/04 05:09:48;;;;;;;28.00;25.80;;;11.20;28.30;;;;;;5015592;28;20672;-80
2024/03/04 05:12:14;;;;;;;27.83;25.73;;;11.30;28.60;;;;;;5009028;28;20519;-80
2024/03/04 05:14:40;;;;;;;28.50;26.33;;;11.10;28.70;;;;;;5014893;28;20193;-80
2024/03/04 05:17:07;;;;;;;28.60;26.40;;;11.30;28.60;;;;;;5023774;28;20181;-80
2024/03/04 05:19:37;;;;;;;29.73;27.60;;;11.30;28.50;;;;;;5015850;28;20448;-81
2024/03/04 05:22:02;;;;;;;29.57;27.07;;;11.20;28.70;;;;;;5023376;28;20464;-80
2024/03/04 05:24:29;;;;;;;31.97;29.50;;;11.10;28.90;;;;;;5016335;28;20448;-80
2024/03/04 05:26:55;;;;;;;30.07;27.77;;;10.80;29.70;;;;;;5005345;28;20265;-80
2024/03/04 05:29:20;;;;;;;30.30;27.90;;;10.80;30.60;;;;;;5003548;28;20456;-80
2024/03/04 05:31:54;;;;;;;31.37;28.87;;;10.90;30.10;;;;;;5011534;28;20197;-81
2024/03/04 05:34:20;;;;;;;31.33;28.83;;;11.10;29.50;;;;;;5005310;28;20206;-81
2024/03/04 05:36:46;;;;;;;31.87;29.27;;;11.20;29.00;;;;;;5008437;28;20414;-81
2024/03/04 05:39:11;;;;;;;29.40;27.17;;;11.20;29.30;;;;;;5016746;28;20435;-80
2024/03/04 05:41:40;;;;;;;30.57;28.17;;;11.00;29.80;;;;;;5007564;28;20632;-81
2024/03/04 05:44:05;;;;;;;30.23;27.73;;;10.90;30.30;;;;;;5017488;28;20201;-80
2024/03/04 05:46:31;;;;;;;31.80;29.27;;;11.00;29.70;;;;;;5017273;28;21027;-80
2024/03/04 05:48:56;;;;;;;32.87;30.30;;;10.80;30.80;;;;;;5017586;28;20574;-80
2024/03/04 05:51:22;;;;;;;33.87;31.20;;;10.70;31.70;;;;;;5011959;28;20264;-81
2024/03/04 05:53:48;;;;;;;33.57;31.07;;;10.80;31.20;;;;;;5007725;28;20270;-81
2024/03/04 05:56:16;;;;;;;32.90;30.50;;;10.90;30.80;;;;;;5012904;28;20189;-81
2024/03/04 05:58:42;;;;;;;33.67;30.97;;;11.10;30.00;;;;;;5014666;28;20243;-82
2024/03/04 06:01:08;;;;;;;33.73;30.97;;;11.10;29.80;;;;;;5013366;28;20475;-80
2024/03/04 06:03:33;;;;;;;35.13;32.23;;;11.10;30.00;;;;;;5009718;28;20213;-82
2024/03/04 06:05:59;;;;;;;35.97;32.87;;;11.00;29.90;;;;;;5014222;28;20428;-81
2024/03/04 06:08:24;;;;;;;36.53;33.50;;;11.00;30.70;;;;;;5008314;28;20189;-80
2024/03/04 06:10:50;;;;;;;34.13;31.27;;;10.80;30.70;;;;;;5005953;28;20242;-81
2024/03/04 06:13:15;;;;;;;36.40;33.57;;;10.70;31.60;;;;;;5007602;28;20212;-81
2024/03/04 06:15:47;;;;;;;34.27;31.67;;;10.70;32.10;;;;;;5007078;28;20272;-81
2024/03/04 06:18:13;;;;;;;36.63;33.57;;;10.70;32.10;;;;;;5015452;28;20243;-81
2024/03/04 06:20:39;;;;;;;37.93;34.93;;;10.70;32.20;;;;;;5011529;28;20425;-81
2024/03/04 06:36:41;;;;;;;36.00;32.90;;;11.10;30.80;;;;;;5007433;28;20826;-81
2024/03/04 06:39:07;;;;;;;36.23;32.90;;;11.10;30.30;;;;;;4909705;29;20444;-80
2024/03/04 06:41:32;;;;;;;37.80;34.50;;;10.90;32.20;;;;;;4980246;28;20468;-79
2024/03/04 06:44:04;;;;;;;40.80;37.30;;;10.80;32.20;;;;;;4997851;28;20193;-80
2024/03/04 06:46:37;;;;;;;41.37;37.77;;;10.70;32.60;;;;;;5014765;28;20209;-80
2024/03/04 06:49:03;;;;;;;38.97;35.37;;;10.60;33.10;;;;;;4998758;28;20920;-81
2024/03/04 06:51:32;;;;;;;38.73;35.30;;;10.60;32.90;;;;;;5002243;28;20431;-80
2024/03/04 06:53:58;;;;;;;39.97;36.43;;;10.50;33.40;;;;;;5006739;28;20197;-80
2024/03/04 06:56:39;;;;;;;39.87;36.20;;;10.40;34.00;;;;;;5004932;28;20517;-81
2024/03/04 06:59:08;;;;;;;40.13;36.53;;;10.50;33.60;;;;;;5000290;28;20425;-80
2024/03/04 07:01:33;;;;;;;41.10;37.43;;;10.40;34.00;;;;;;5005466;28;20463;-80
2024/03/04 07:03:59;;;;;;;38.53;35.00;;;10.40;34.60;;;;;;5003289;28;20446;-80
2024/03/04 07:07:15;;;;;;;40.00;36.50;;;10.50;34.00;;;;;;5017055;28;20571;-80
2024/03/04 07:09:41;;;;;;;39.90;36.27;;;10.40;34.40;;;;;;5007909;28;20185;-81
2024/03/04 07:12:08;;;;;;;38.33;35.00;;;10.20;35.20;;;;;;5004281;28;20564;-80
2024/03/04 07:14:34;;;;;;;41.33;37.63;;;10.20;35.60;;;;;;5004697;28;20574;-80
2024/03/04 07:17:08;;;;;;;40.70;36.90;;;10.20;35.90;;;;;;5011434;28;20417;-81
2024/03/04 07:19:34;;;;;;;39.57;36.10;;;10.10;36.80;;;;;;5013815;28;20185;-81
2024/03/04 07:22:25;;;;;;;38.97;35.30;;;10.10;37.10;;;;;;5007833;28;20471;-81
2024/03/04 07:24:58;;;;;;;39.50;35.90;;;10.20;36.80;;;;;;5016706;28;20194;-81
2024/03/04 07:27:24;;;;;;;39.23;35.43;;;10.10;37.10;;;;;;5019500;28;20474;-81
2024/03/04 07:29:49;;;;;;;42.07;38.27;;;10.00;37.70;;;;;;5010091;28;20426;-81
2024/03/04 07:32:15;;;;;;;39.67;36.07;;;10.10;37.70;;;;;;5013012;28;20178;-81
2024/03/04 07:34:53;;;;;;;40.00;36.50;;;10.20;37.60;;;;;;5015293;28;20252;-81
2024/03/04 07:37:24;;;;;;;39.50;36.10;;;10.40;36.80;;;;;;5008061;28;20259;-79
2024/03/04 07:40:03;;;;;;;37.10;33.80;;;10.60;36.70;;;;;;5018885;28;20487;-80
2024/03/04 07:42:34;;;;;;;40.07;36.37;;;10.70;35.60;;;;;;5003571;28;20511;-80
2024/03/04 07:45:04;;;;;;;38.10;34.70;;;10.80;34.10;;;;;;5009890;28;20484;-80
2024/03/04 07:47:40;;;;;;;40.20;36.50;;;10.80;34.30;;;;;;5008486;28;20421;-80
2024/03/04 07:50:11;;;;;;;36.90;33.40;;;10.90;35.20;;;;;;5008075;28;20412;-80
2024/03/04 07:52:42;;;;;;;36.50;33.17;;;11.00;33.70;;;;;;5010176;28;20436;-80
2024/03/04 07:55:17;;;;;;;37.93;34.23;;;11.10;32.50;;;;;;5013054;28;20423;-80
2024/03/04 07:57:50;;;;;;;36.83;33.83;;;11.20;32.50;;;;;;5023531;28;20788;-80
2024/03/04 08:00:24;;;;;;;36.10;32.80;;;11.40;31.70;;;;;;4999814;28;20433;-79
2024/03/04 08:02:50;;;;;;;37.00;33.83;;;11.10;32.50;;;;;;5016742;28;20471;-80
2024/03/04 08:05:16;;;;;;;37.13;33.70;;;11.00;32.90;;;;;;5015211;28;20438;-80
2024/03/04 08:07:42;;;;;;;38.23;34.73;;;11.10;32.50;;;;;;5010420;28;20177;-79
2024/03/04 08:10:23;;;;;;;36.60;33.23;;;11.10;32.50;;;;;;5014180;28;20413;-80
2024/03/04 08:12:49;;;;;;;36.23;33.13;;;11.10;32.50;;;;;;5009614;28;20229;-80
2024/03/04 08:15:18;;;;;;;36.60;33.27;;;11.10;32.50;;;;;;5013682;28;20409;-80
2024/03/04 08:17:44;;;;;;;36.40;33.37;;;11.20;32.60;;;;;;5001690;28;20249;-80
2024/03/04 08:20:15;;;;;;;38.30;34.80;;;11.30;31.70;;;;;;5005951;28;20477;-80
2024/03/04 08:22:41;;;;;;;38.27;34.97;;;11.30;31.70;;;;;;5009757;28;20493;-80
2024/03/04 08:25:16;;;;;;;39.00;35.47;;;11.30;32.00;;;;;;5017095;28;20432;-80
2024/03/04 08:27:42;;;;;;;37.37;33.90;;;11.40;32.10;;;;;;5007881;28;20180;-79
2024/03/04 08:30:09;;;;;;;38.10;34.60;;;11.50;32.60;;;;;;5015844;28;20510;-79
2024/03/04 08:32:38;;;;;;;37.00;33.70;;;11.60;31.90;;;;;;5001827;28;20209;-78
2024/03/04 08:35:04;;;;;;;38.90;35.50;;;11.50;32.10;;;;;;5003214;28;20421;-79
2024/03/04 08:37:30;;;;;;;38.50;34.97;;;11.40;32.70;;;;;;5017079;28;20413;-80
2024/03/04 08:40:03;;;;;;;39.50;35.80;;;11.40;32.70;;;;;;5015095;28;20247;-80
2024/03/04 08:42:28;;;;;;;37.63;34.20;;;11.40;32.80;;;;;;5004486;28;20209;-80
2024/03/04 08:44:57;;;;;;;38.93;35.30;;;11.20;34.60;;;;;;5017314;28;20428;-81
2024/03/04 08:47:23;;;;;;;39.67;35.67;;;11.20;35.00;;;;;;5006638;28;20193;-79
2024/03/04 08:49:49;;;;;;;38.47;35.07;;;11.30;34.60;;;;;;5003364;28;20418;-79
2024/03/04 08:52:15;;;;;;;41.27;37.47;;;11.10;35.60;;;;;;5014941;28;20173;-80
2024/03/04 08:54:41;;;;;;;39.53;35.83;;;11.20;35.40;;;;;;5015849;28;20856;-80
2024/03/04 08:57:06;;;;;;;41.30;37.47;;;11.20;34.90;;;;;;5008131;28;20204;-80
2024/03/04 08:59:35;;;;;;;40.73;36.97;;;11.40;34.50;;;;;;5003786;28;20200;-81
2024/03/04 09:02:04;;;;;;;38.60;34.80;;;11.40;34.40;;;;;;5003456;28;20210;-82
2024/03/04 09:04:30;;;;;;;40.80;37.03;;;11.20;35.00;;;;;;4994321;28;20443;-80
2024/03/04 09:06:55;;;;;;;39.00;35.40;;;11.10;36.10;;;;;;5006781;28;20511;-79
2024/03/04 09:09:21;;;;;;;40.57;36.17;;;11.20;36.30;;;;;;5002799;28;20205;-80
2024/03/04 09:11:48;;;;;;;39.73;36.20;;;11.30;35.40;;;;;;5013721;28;20181;-81
2024/03/04 09:14:14;;;;;;;44.90;40.80;;;11.30;35.70;;;;;;5038460;22;20229;-81
2024/03/04 09:17:01;;;;;;;40.20;36.50;;;11.30;36.20;;;;;;5029906;28;20429;-84
2024/03/04 09:19:32;;;;;;;42.70;38.70;;;11.30;35.90;;;;;;5007131;28;20219;-82
2024/03/04 09:21:57;;;;;;;40.47;36.90;;;11.40;34.90;;;;;;5004522;28;20464;-80
2024/03/04 09:24:27;;;;;;;41.03;37.33;;;11.30;35.20;;;;;;5013987;28;21013;-83
2024/03/04 09:27:08;;;;;;;40.67;37.07;;;11.40;34.90;;;;;;5005421;28;20182;-83
2024/03/04 09:29:37;;;;;;;42.03;38.50;;;11.50;34.40;;;;;;5007437;28;20494;-83
2024/03/04 09:32:07;;;;;;;41.80;37.90;;;11.60;33.00;;;;;;5016094;28;20429;-83
2024/03/04 10:29:12;;;;;;;48.33;43.77;;;11.30;32.60;;;;;;4972344;28;20498;-84
2024/03/04 10:32:27;;;;;;;50.33;44.87;;;11.50;32.10;;;;;;4886969;28;20981;-84
2024/03/04 10:42:34;;;;;;;49.37;44.17;;;11.50;31.80;;;;;;4881210;29;20468;-83
2024/03/04 10:52:23;;;;;;;48.90;43.77;;;11.60;30.80;;;;;;4900308;29;20434;-82
2024/03/04 10:59:17;;;;;;;51.00;45.57;;;11.70;30.70;;;;;;4944985;29;20477;-82
2024/03/04 11:02:18;;;;;;;47.50;42.70;;;11.70;31.10;;;;;;4938931;29;20469;-82
2024/03/04 11:04:59;;;;;;;46.30;41.50;;;11.80;31.40;;;;;;4962283;28;20452;-81
2024/03/04 11:07:46;;;;;;;45.13;40.53;;;11.80;31.10;;;;;;5018173;28;20421;-81
2024/03/04 11:10:51;;;;;;;44.97;40.37;;;11.80;31.10;;;;;;5016899;28;20412;-80
2024/03/04 11:13:34;;;;;;;49.73;44.27;;;11.60;32.90;;;;;;4987679;28;20456;-81
2024/03/04 11:16:04;;;;;;;49.57;44.40;;;11.50;32.80;;;;;;5002715;28;20488;-81
2024/03/04 11:18:36;;;;;;;48.90;44.10;;;11.50;32.80;;;;;;5012727;28;20463;-81
2024/03/04 11:21:03;;;;;;;48.20;43.20;;;11.60;32.80;;;;;;5014924;28;20448;-82
2024/03/04 11:23:30;;;;;;;44.63;40.17;;;11.70;31.70;;;;;;5010229;28;20839;-81
2024/03/04 11:25:59;;;;;;;46.60;42.10;;;11.80;31.50;;;;;;5001225;28;20420;-81
2024/03/04 11:28:27;;;;;;;48.43;41.93;;;11.90;30.90;;;;;;5011892;28;20431;-82
2024/03/04 11:30:54;;;;;;;45.83;41.23;;;12.00;30.30;;;;;;5006307;28;20455;-81
2024/03/04 11:33:45;;;;;;;44.10;39.33;;;12.00;30.30;;;;;;5009166;28;20459;-82
2024/03/04 11:36:12;;;;;;;44.07;39.50;;;12.00;30.00;;;;;;5004750;28;20523;-82
2024/03/04 11:38:44;;;;;;;45.47;40.77;;;12.00;29.70;;;;;;5005183;28;20425;-80
2024/03/04 11:41:10;;;;;;;44.50;40.00;;;12.00;29.80;;;;;;5006680;28;20264;-81
2024/03/04 11:43:46;;;;;;;43.70;39.30;;;12.00;29.60;;;;;;5010536;28;20509;-80
2024/03/04 11:46:19;;;;;;;45.83;41.20;;;12.00;29.90;;;;;;4997386;28;20456;-81
2024/03/04 11:49:31;;;;;;;43.63;39.13;;;12.00;29.60;;;;;;5003303;28;20427;-83
2024/03/04 11:52:20;;;;;;;46.13;41.27;;;11.80;30.00;;;;;;5013900;28;20440;-80
2024/03/04 11:54:47;;;;;;;43.03;38.97;;;11.60;31.30;;;;;;5008699;28;20453;-82
2024/03/04 11:57:17;;;;;;;45.17;40.60;;;11.60;31.70;;;;;;5003871;28;20432;-82
2024/03/04 12:00:09;;;;;;;45.23;40.63;;;11.70;31.20;;;;;;5000070;28;20449;-82
2024/03/04 12:02:38;;;;;;;48.70;43.60;;;11.80;31.10;;;;;;5004937;28;20465;-82
2024/03/04 12:05:06;;;;;;;43.60;39.03;;;11.80;30.20;;;;;;4999791;28;20480;-81
2024/03/04 12:07:34;;;;;;;45.73;41.03;;;11.90;29.90;;;;;;5016694;28;20912;-81
2024/03/04 12:10:00;;;;;;;46.77;41.77;;;11.90;30.00;;;;;;5005805;28;20433;-80
2024/03/04 12:12:27;;;;;;;44.53;40.23;;;11.90;30.10;;;;;;5002512;28;20444;-81
2024/03/04 12:14:53;;;;;;;45.83;41.50;;;11.90;30.00;;;;;;4994041;28;20436;-81
2024/03/04 12:17:19;;;;;;;45.30;41.03;;;11.80;29.80;;;;;;5006427;28;20428;-82
2024/03/04 12:19:57;;;;;;;43.33;39.20;;;11.80;30.00;;;;;;5002790;28;20238;-81
2024/03/04 12:22:26;;;;;;;40.77;36.87;;;11.80;30.10;;;;;;5026517;28;20205;-80
2024/03/04 12:25:06;;;;;;;42.50;38.30;;;11.70;30.10;;;;;;5009607;28;20416;-81
2024/03/04 12:27:32;;;;;;;43.00;38.70;;;11.70;30.40;;;;;;4995605;28;20417;-81
2024/03/04 12:30:18;;;;;;;43.30;39.27;;;11.80;30.20;;;;;;4999545;28;20879;-81
2024/03/04 12:32:48;;;;;;;41.93;37.97;;;11.80;29.90;;;;;;5010717;28;20527;-81
2024/03/04 12:35:32;;;;;;;40.50;36.30;;;11.70;30.10;;;;;;4997593;28;20452;-81
2024/03/04 12:38:01;;;;;;;38.57;34.83;;;11.70;30.00;;;;;;5000630;28;20416;-81
2024/03/04 12:40:27;;;;;;;40.67;36.67;;;11.80;30.10;;;;;;5008815;28;20425;-81
2024/03/04 12:43:02;;;;;;;39.53;35.83;;;11.80;30.00;;;;;;4999351;28;20494;-82
2024/03/04 12:45:32;;;;;;;40.73;36.70;;;11.80;29.70;;;;;;4993933;28;20431;-83
2024/03/04 12:47:58;;;;;;;39.10;34.80;;;11.80;29.60;;;;;;5026558;28;20427;-81
2024/03/04 12:50:25;;;;;;;40.53;36.43;;;11.90;29.60;;;;;;4993795;28;20452;-82
2024/03/04 12:52:51;;;;;;;38.80;35.30;;;11.90;29.60;;;;;;5012444;28;20444;-81
2024/03/04 12:55:19;;;;;;;41.50;37.40;;;11.80;29.90;;;;;;5002485;28;20539;-82
2024/03/04 12:57:45;;;;;;;40.10;36.17;;;11.80;30.50;;;;;;5008546;28;20935;-82
2024/03/04 13:00:16;;;;;;;39.80;36.00;;;11.70;30.50;;;;;;5004924;28;20409;-81
2024/03/04 13:02:46;;;;;;;40.37;36.53;;;11.80;30.90;;;;;;4998666;28;20521;-81
2024/03/04 13:05:13;;;;;;;38.80;35.37;;;11.80;30.90;;;;;;5000445;28;20424;-81
2024/03/04 13:07:39;;;;;;;41.10;37.10;;;11.90;30.40;;;;;;5002714;28;20991;-82
2024/03/04 13:10:06;;;;;;;38.17;34.67;;;11.90;30.30;;;;;;5010140;28;20784;-80
2024/03/04 13:12:43;;;;;;;40.17;36.37;;;11.80;30.40;;;;;;5002366;28;20553;-81
2024/03/04 13:15:10;;;;;;;37.10;33.50;;;11.70;30.40;;;;;;4994191;28;20437;-80
2024/03/04 13:17:37;;;;;;;38.90;35.40;;;11.60;30.80;;;;;;5008202;28;20443;-81
2024/03/04 13:20:12;;;;;;;40.43;36.50;;;11.60;31.60;;;;;;5004661;28;20456;-80
2024/03/04 13:22:47;;;;;;;39.37;35.60;;;11.50;32.20;;;;;;5000863;28;20838;-82
2024/03/04 13:25:17;;;;;;;38.67;35.10;;;11.60;32.30;;;;;;5003687;28;20948;-81
2024/03/04 13:27:43;;;;;;;37.00;33.53;;;11.60;32.00;;;;;;4998500;28;21000;-81
2024/03/04 13:30:10;;;;;;;37.20;33.70;;;11.50;32.80;;;;;;5012459;28;20446;-82
2024/03/04 13:32:36;;;;;;;36.97;33.80;;;11.50;32.30;;;;;;5018558;28;20193;-82
2024/03/04 13:35:03;;;;;;;35.47;32.40;;;11.50;32.40;;;;;;5019452;28;20420;-85
2024/03/04 13:37:28;;;;;;;35.13;32.07;;;11.50;32.50;;;;;;5023373;28;20441;-85
2024/03/04 13:39:54;;;;;;;36.60;33.50;;;11.60;32.30;;;;;;5027883;28;20720;-81
2024/03/04 13:42:26;;;;;;;36.20;33.00;;;11.70;32.10;;;;;;5013322;28;20619;-82
2024/03/04 13:44:51;;;;;;;34.20;31.47;;;11.70;31.30;;;;;;4995000;28;20540;-82
2024/03/04 13:47:17;;;;;;;34.47;31.27;;;11.70;31.80;;;;;;5013799;28;20468;-82
2024/03/04 13:49:43;;;;;;;34.60;31.63;;;11.80;31.10;;;;;;5008388;28;20182;-84
2024/03/04 13:52:09;;;;;;;35.23;31.93;;;11.70;31.00;;;;;;4998920;28;20198;-83
2024/03/04 13:54:34;;;;;;;35.47;32.07;;;11.80;30.70;;;;;;4996494;28;21004;-82
2024/03/04 13:57:01;;;;;;;35.40;32.00;;;11.80;30.10;;;;;;5009638;28;20557;-82
2024/03/04 13:59:27;;;;;;;34.10;31.30;;;11.70;30.30;;;;;;5008534;28;20226;-82
2024/03/04 14:01:53;;;;;;;32.83;30.03;;;11.80;30.20;;;;;;5007790;28;20475;-82
2024/03/04 14:04:22;;;;;;;32.50;29.60;;;11.70;30.00;;;;;;5004306;28;20440;-83
2024/03/04 14:06:47;;;;;;;32.80;29.90;;;11.60;30.90;;;;;;5014687;28;20431;-82